createdAt,value
2023-06-11T00:00:52.282Z,772.81
2023-06-11T00:01:52.258Z,761.10
2023-06-11T00:02:52.421Z,762.85
2023-06-11T00:03:52.326Z,872.67
2023-06-11T00:04:52.470Z,979.82
2023-06-11T00:05:52.306Z,925.67
2023-06-11T00:06:52.277Z,913.01
2023-06-11T00:07:52.297Z,919.16
2023-06-11T00:08:52.277Z,822.60
2023-06-11T00:09:52.314Z,785.51
2023-06-11T00:10:52.306Z,793.46
2023-06-11T00:11:52.291Z,694.38
2023-06-11T00:12:52.327Z,600.47
2023-06-11T00:13:52.298Z,568.26
2023-06-11T00:14:52.327Z,606.59
2023-06-11T00:15:52.407Z,650.50
2023-06-11T00:16:52.361Z,713.83
2023-06-11T00:17:52.424Z,840.51
2023-06-11T00:18:52.380Z,782.64
2023-06-11T00:19:52.412Z,795.72
2023-06-11T00:20:52.406Z,825.90
2023-06-11T00:21:52.420Z,892.28
2023-06-11T00:22:52.421Z,965.65
2023-06-11T00:23:52.466Z,924.65
2023-06-11T00:24:52.464Z,977.37
2023-06-11T00:25:52.509Z,1000.00
2023-06-11T00:26:52.461Z,1000.00
2023-06-11T00:27:52.506Z,996.34
2023-06-11T00:28:52.551Z,715.33
2023-06-11T00:29:52.532Z,648.84
2023-06-11T00:30:52.544Z,584.69
2023-06-11T00:31:52.595Z,600.04
2023-06-11T00:32:52.623Z,569.62
2023-06-11T00:33:52.558Z,539.01
2023-06-11T00:34:52.574Z,574.55
2023-06-11T00:35:52.591Z,601.08
2023-06-11T00:36:52.585Z,705.59
2023-06-11T00:37:52.599Z,707.32
2023-06-11T00:38:52.612Z,687.08
2023-06-11T00:39:52.655Z,693.27
2023-06-11T00:40:52.644Z,674.31
2023-06-11T00:41:52.677Z,670.45
2023-06-11T00:42:52.676Z,637.37
2023-06-11T00:43:52.680Z,601.82
2023-06-11T00:44:52.698Z,575.50
2023-06-11T00:45:52.969Z,582.59
2023-06-11T00:46:52.716Z,581.58
2023-06-11T00:47:52.871Z,558.89
2023-06-11T00:48:52.784Z,595.78
2023-06-11T00:49:52.778Z,584.10
2023-06-11T00:50:52.870Z,621.22
2023-06-11T00:51:52.783Z,629.49
2023-06-11T00:52:52.788Z,691.06
2023-06-11T00:53:52.814Z,730.23
2023-06-11T00:54:52.804Z,720.11
2023-06-11T00:55:52.884Z,762.70
2023-06-11T00:56:52.886Z,899.18
2023-06-11T00:57:52.878Z,1000.00
2023-06-11T00:58:52.922Z,1000.00
2023-06-11T00:59:52.897Z,1000.00
2023-06-11T01:00:52.974Z,1000.00
2023-06-11T01:01:52.954Z,1000.00
2023-06-11T01:02:53.019Z,1000.00
2023-06-11T01:03:53.054Z,1000.00
2023-06-11T01:04:53.054Z,1000.00
2023-06-11T01:05:53.100Z,1000.00
2023-06-11T01:06:53.046Z,1000.00
2023-06-11T01:07:53.115Z,1000.00
2023-06-11T01:08:53.145Z,1000.00
2023-06-11T01:09:53.193Z,1000.00
2023-06-11T01:10:53.300Z,1000.00
2023-06-11T01:11:53.227Z,1000.00
2023-06-11T01:12:53.287Z,1000.00
2023-06-11T01:13:53.344Z,1000.00
2023-06-11T01:14:53.359Z,1000.00
2023-06-11T01:15:53.472Z,1000.00
2023-06-11T01:16:53.643Z,1000.00
2023-06-11T01:17:53.554Z,1000.00
2023-06-11T01:18:53.545Z,1000.00
2023-06-11T01:19:53.666Z,1000.00
2023-06-11T01:20:53.643Z,1000.00
2023-06-11T01:21:53.748Z,1000.00
2023-06-11T01:22:53.758Z,1000.00
2023-06-11T01:23:53.888Z,1000.00
2023-06-11T01:24:53.841Z,1000.00
2023-06-11T01:25:53.875Z,1000.00
2023-06-11T01:26:53.943Z,1000.00
2023-06-11T01:27:53.989Z,1000.00
2023-06-11T01:28:54.049Z,1000.00
2023-06-11T01:29:54.104Z,1000.00
2023-06-11T01:30:54.260Z,1000.00
2023-06-11T01:31:54.261Z,1000.00
2023-06-11T01:32:54.430Z,1000.00
2023-06-11T01:33:54.351Z,1000.00
2023-06-11T01:34:54.400Z,1000.00
2023-06-11T01:35:54.429Z,1000.00
2023-06-11T01:36:54.502Z,1000.00
2023-06-11T01:37:54.531Z,1000.00
2023-06-11T01:38:54.605Z,1000.00
2023-06-11T01:39:54.799Z,1000.00
2023-06-11T01:40:54.748Z,1000.00
2023-06-11T01:41:54.815Z,1000.00
2023-06-11T01:42:54.832Z,1000.00
2023-06-11T01:43:54.953Z,1000.00
2023-06-11T01:44:54.942Z,1000.00
2023-06-11T01:45:54.985Z,1000.00
2023-06-11T01:46:55.100Z,1000.00
2023-06-11T01:47:55.140Z,907.69
2023-06-11T01:48:55.155Z,763.37
2023-06-11T01:49:55.182Z,686.27
2023-06-11T01:50:55.292Z,581.35
2023-06-11T01:51:55.357Z,537.80
2023-06-11T01:52:55.400Z,546.22
2023-06-11T01:53:55.463Z,578.59
2023-06-11T01:54:55.493Z,595.65
2023-06-11T01:55:55.592Z,641.85
2023-06-11T01:56:55.650Z,764.36
2023-06-11T01:57:55.670Z,843.63
2023-06-11T01:58:55.728Z,766.54
2023-06-11T01:59:55.829Z,779.21
2023-06-11T02:00:55.911Z,844.65
2023-06-11T02:01:56.045Z,727.64
2023-06-11T02:02:56.064Z,636.28
2023-06-11T02:03:56.093Z,623.41
2023-06-11T02:04:56.105Z,656.74
2023-06-11T02:05:56.153Z,692.31
2023-06-11T02:06:56.226Z,717.59
2023-06-11T02:07:56.269Z,714.68
2023-06-11T02:08:56.309Z,739.91
2023-06-11T02:09:56.338Z,725.88
2023-06-11T02:10:56.467Z,750.09
2023-06-11T02:11:56.512Z,810.69
2023-06-11T02:12:56.603Z,912.25
2023-06-11T02:13:56.654Z,918.96
2023-06-11T02:14:56.691Z,994.90
2023-06-11T02:15:56.760Z,1000.00
2023-06-11T02:16:56.914Z,991.48
2023-06-11T02:17:56.931Z,903.22
2023-06-11T02:18:56.945Z,750.01
2023-06-11T02:19:57.078Z,682.60
2023-06-11T02:20:57.086Z,576.21
2023-06-11T02:21:57.102Z,518.34
2023-06-11T02:22:57.140Z,481.13
2023-06-11T02:23:57.185Z,417.83
2023-06-11T02:24:57.219Z,403.75
2023-06-11T02:25:57.301Z,422.13
2023-06-11T02:26:57.280Z,478.29
2023-06-11T02:27:57.355Z,533.86
2023-06-11T02:28:57.397Z,492.05
2023-06-11T02:29:57.473Z,433.07
2023-06-11T02:30:57.518Z,439.21
2023-06-11T02:31:57.568Z,461.58
2023-06-11T02:32:57.631Z,473.49
2023-06-11T02:33:57.641Z,492.86
2023-06-11T02:34:57.617Z,492.80
2023-06-11T02:35:57.693Z,420.70
2023-06-11T02:36:57.763Z,405.86
2023-06-11T02:37:57.826Z,414.97
2023-06-11T02:38:57.864Z,408.41
2023-06-11T02:39:57.964Z,457.86
2023-06-11T02:40:58.033Z,437.50
2023-06-11T02:41:58.058Z,448.13
2023-06-11T02:42:58.112Z,406.53
2023-06-11T02:43:58.138Z,396.23
2023-06-11T02:44:58.153Z,399.38
2023-06-11T02:45:58.225Z,401.51
2023-06-11T02:46:58.256Z,454.62
2023-06-11T02:47:58.319Z,506.97
2023-06-11T02:48:58.296Z,565.21
2023-06-11T02:49:58.370Z,592.63
2023-06-11T02:50:58.420Z,667.59
2023-06-11T02:51:58.482Z,683.59
2023-06-11T02:52:58.551Z,678.87
2023-06-11T02:53:59.573Z,705.29
2023-06-11T02:54:58.652Z,712.70
2023-06-11T02:55:58.778Z,691.39
2023-06-11T02:56:58.805Z,672.75
2023-06-11T02:57:58.816Z,689.87
2023-06-11T02:58:58.920Z,651.85
2023-06-11T02:59:58.967Z,672.48
2023-06-11T03:00:59.009Z,689.49
2023-06-11T03:01:59.089Z,718.94
2023-06-11T03:02:59.140Z,804.75
2023-06-11T03:03:59.186Z,772.19
2023-06-11T03:04:59.258Z,701.58
2023-06-11T03:06:01.746Z,676.00
2023-06-11T03:06:59.214Z,686.65
2023-06-11T03:07:59.180Z,730.51
2023-06-11T03:08:59.198Z,738.71
2023-06-11T03:09:59.180Z,677.31
2023-06-11T03:10:59.204Z,666.55
2023-06-11T03:11:59.191Z,658.02
2023-06-11T03:12:59.174Z,632.30
2023-06-11T03:13:59.183Z,695.57
2023-06-11T03:14:59.158Z,748.22
2023-06-11T03:15:59.172Z,784.00
2023-06-11T03:16:59.138Z,796.55
2023-06-11T03:17:59.193Z,759.66
2023-06-11T03:18:59.091Z,736.38
2023-06-11T03:19:59.105Z,761.31
2023-06-11T03:20:59.210Z,742.79
2023-06-11T03:21:59.130Z,750.26
2023-06-11T03:22:59.085Z,731.52
2023-06-11T03:23:59.131Z,734.74
2023-06-11T03:24:59.090Z,689.65
2023-06-11T03:25:59.078Z,651.84
2023-06-11T03:26:59.107Z,605.17
2023-06-11T03:27:59.056Z,468.95
2023-06-11T03:28:59.032Z,397.53
2023-06-11T03:29:59.058Z,397.09
2023-06-11T03:30:59.076Z,406.02
2023-06-11T03:31:59.133Z,399.42
2023-06-11T03:32:59.080Z,383.70
2023-06-11T03:33:59.016Z,356.62
2023-06-11T03:34:59.034Z,327.27
2023-06-11T03:35:59.035Z,335.42
2023-06-11T03:36:59.045Z,356.76
2023-06-11T03:37:59.016Z,325.70
2023-06-11T03:38:58.970Z,291.69
2023-06-11T03:39:58.985Z,321.40
2023-06-11T03:40:58.987Z,351.33
2023-06-11T03:41:58.951Z,312.26
2023-06-11T03:43:00.806Z,269.51
2023-06-11T03:43:58.965Z,253.31
2023-06-11T03:44:58.935Z,245.91
2023-06-11T03:45:58.964Z,267.12
2023-06-11T03:46:58.974Z,274.57
2023-06-11T03:47:58.990Z,269.27
2023-06-11T03:48:58.998Z,289.97
2023-06-11T03:49:59.003Z,286.80
2023-06-11T03:50:59.009Z,277.95
2023-06-11T03:51:59.024Z,276.67
2023-06-11T03:52:59.073Z,286.21
2023-06-11T03:53:59.172Z,289.80
2023-06-11T03:54:59.246Z,299.16
2023-06-11T03:55:59.332Z,311.08
2023-06-11T03:56:59.304Z,311.83
2023-06-11T03:57:59.314Z,352.40
2023-06-11T03:58:59.368Z,360.55
2023-06-11T03:59:59.441Z,373.25
2023-06-11T04:00:59.455Z,376.95
2023-06-11T04:01:59.521Z,352.30
2023-06-11T04:03:00.568Z,348.00
2023-06-11T04:03:59.645Z,341.05
2023-06-11T04:04:59.603Z,328.35
2023-06-11T04:05:59.664Z,331.46
2023-06-11T04:06:59.738Z,337.66
2023-06-11T04:07:59.780Z,340.20
2023-06-11T04:08:59.811Z,322.26
2023-06-11T04:09:59.852Z,317.64
2023-06-11T04:10:59.930Z,304.10
2023-06-11T04:11:59.913Z,282.27
2023-06-11T04:12:59.984Z,249.72
2023-06-11T04:13:59.985Z,276.60
2023-06-11T04:15:00.049Z,250.17
2023-06-11T04:16:00.118Z,242.64
2023-06-11T04:17:00.163Z,251.88
2023-06-11T04:18:00.213Z,261.75
2023-06-11T04:19:00.161Z,260.40
2023-06-11T04:20:00.226Z,258.81
2023-06-11T04:21:00.240Z,293.18
2023-06-11T04:22:00.266Z,339.09
2023-06-11T04:23:00.307Z,365.05
2023-06-11T04:24:00.327Z,404.39
2023-06-11T04:25:00.319Z,417.75
2023-06-11T04:26:00.382Z,412.08
2023-06-11T04:27:00.370Z,426.60
2023-06-11T04:28:00.390Z,449.95
2023-06-11T04:29:00.391Z,481.52
2023-06-11T04:30:00.451Z,498.16
2023-06-11T04:31:00.486Z,454.66
2023-06-11T04:32:00.526Z,444.09
2023-06-11T04:33:00.639Z,454.63
2023-06-11T04:34:00.529Z,455.86
2023-06-11T04:35:00.558Z,491.46
2023-06-11T04:36:00.579Z,496.57
2023-06-11T04:37:00.614Z,504.14
2023-06-11T04:38:00.614Z,514.57
2023-06-11T04:39:00.613Z,510.90
2023-06-11T04:40:00.630Z,448.41
2023-06-11T04:41:00.654Z,443.78
2023-06-11T04:42:00.668Z,433.45
2023-06-11T04:43:00.651Z,453.40
2023-06-11T04:44:00.672Z,445.50
2023-06-11T04:45:00.655Z,417.00
2023-06-11T04:46:00.666Z,399.32
2023-06-11T04:47:00.698Z,425.92
2023-06-11T04:48:00.729Z,459.80
2023-06-11T04:49:00.669Z,464.15
2023-06-11T04:50:00.669Z,499.58
2023-06-11T04:51:00.702Z,455.52
2023-06-11T04:52:00.712Z,425.50
2023-06-11T04:53:00.719Z,381.97
2023-06-11T04:54:00.730Z,391.41
2023-06-11T04:55:00.763Z,413.25
2023-06-11T04:56:03.087Z,354.11
2023-06-11T04:57:00.747Z,339.39
2023-06-11T04:58:00.707Z,354.39
2023-06-11T04:59:00.721Z,323.96
2023-06-11T05:00:01.453Z,313.07
2023-06-11T05:01:00.712Z,284.05
2023-06-11T05:02:00.776Z,253.14
2023-06-11T05:03:00.725Z,249.37
2023-06-11T05:04:00.790Z,257.77
2023-06-11T05:05:00.737Z,279.57
2023-06-11T05:06:00.701Z,308.45
2023-06-11T05:07:00.672Z,259.01
2023-06-11T05:08:00.663Z,242.20
2023-06-11T05:09:00.633Z,251.14
2023-06-11T05:10:00.658Z,259.16
2023-06-11T05:11:00.637Z,242.83
2023-06-11T05:12:00.653Z,233.12
2023-06-11T05:13:00.606Z,246.28
2023-06-11T05:14:00.602Z,231.40
2023-06-11T05:15:00.608Z,211.50
2023-06-11T05:16:00.629Z,225.44
2023-06-11T05:17:00.697Z,218.14
2023-06-11T05:18:00.642Z,230.48
2023-06-11T05:19:00.596Z,240.69
2023-06-11T05:20:00.597Z,227.17
2023-06-11T05:21:00.604Z,214.89
2023-06-11T05:22:00.553Z,207.22
2023-06-11T05:23:00.645Z,189.61
2023-06-11T05:24:00.629Z,198.19
2023-06-11T05:25:00.613Z,231.31
2023-06-11T05:26:00.560Z,244.04
2023-06-11T05:27:00.530Z,241.41
2023-06-11T05:28:00.499Z,235.78
2023-06-11T05:29:00.517Z,196.33
2023-06-11T05:30:00.522Z,200.01
2023-06-11T05:31:00.551Z,199.45
2023-06-11T05:32:00.565Z,168.87
2023-06-11T05:33:00.596Z,144.15
2023-06-11T05:34:00.496Z,135.56
2023-06-11T05:35:00.482Z,124.75
2023-06-11T05:36:00.489Z,103.63
2023-06-11T05:37:00.481Z,83.29
2023-06-11T05:38:00.460Z,78.42
2023-06-11T05:39:00.482Z,62.72
2023-06-11T05:40:00.481Z,51.01
2023-06-11T05:41:00.504Z,43.80
2023-06-11T05:42:00.530Z,38.75
2023-06-11T05:43:00.569Z,34.68
2023-06-11T05:44:00.547Z,29.69
2023-06-11T05:45:00.548Z,27.29
2023-06-11T05:46:00.683Z,25.26
2023-06-11T05:47:00.744Z,24.91
2023-06-11T05:48:00.611Z,23.41
2023-06-11T05:49:00.603Z,26.77
2023-06-11T05:50:00.619Z,37.63
2023-06-11T05:51:00.668Z,36.56
2023-06-11T05:52:00.711Z,36.32
2023-06-11T05:53:00.772Z,42.07
2023-06-11T05:54:00.821Z,42.98
2023-06-11T05:55:00.926Z,43.81
2023-06-11T05:56:00.902Z,41.53
2023-06-11T05:57:00.974Z,42.66
2023-06-11T05:58:00.979Z,42.49
2023-06-11T05:59:01.024Z,44.67
2023-06-11T06:00:01.069Z,44.82
2023-06-11T06:01:01.141Z,40.03
2023-06-11T06:02:01.161Z,29.03
2023-06-11T06:03:01.277Z,26.63
2023-06-11T06:04:01.370Z,26.56
2023-06-11T06:05:01.360Z,30.46
2023-06-11T06:06:01.369Z,27.59
2023-06-11T06:07:01.391Z,27.91
2023-06-11T06:08:01.343Z,27.67
2023-06-11T06:09:01.350Z,26.94
2023-06-11T06:10:01.374Z,22.88
2023-06-11T06:11:01.353Z,23.92
2023-06-11T06:12:01.425Z,16.64
2023-06-11T06:13:01.426Z,16.68
2023-06-11T06:14:01.475Z,20.72
2023-06-11T06:15:01.535Z,18.66
2023-06-11T06:16:01.680Z,19.49
2023-06-11T06:17:01.617Z,16.85
2023-06-11T06:18:01.600Z,18.20
2023-06-11T06:19:01.681Z,23.11
2023-06-11T06:20:01.750Z,21.14
2023-06-11T06:21:01.793Z,20.73
2023-06-11T06:22:01.818Z,17.96
2023-06-11T06:23:01.777Z,16.59
2023-06-11T06:24:01.912Z,17.06
2023-06-11T06:25:02.260Z,18.84
2023-06-11T06:26:01.919Z,17.49
2023-06-11T06:27:01.911Z,14.34
2023-06-11T06:28:01.942Z,13.80
2023-06-11T06:29:01.950Z,14.63
2023-06-11T06:30:01.983Z,15.25
2023-06-11T06:31:02.048Z,12.19
2023-06-11T06:32:02.266Z,7.83
2023-06-11T06:33:02.135Z,7.97
2023-06-11T06:34:02.132Z,8.21
2023-06-11T06:35:02.224Z,10.09
2023-06-11T06:36:02.197Z,7.80
2023-06-11T06:37:02.192Z,8.23
2023-06-11T06:38:02.242Z,8.88
2023-06-11T06:39:02.268Z,9.67
2023-06-11T06:40:02.330Z,8.34
2023-06-11T06:41:02.358Z,8.76
2023-06-11T06:42:02.395Z,8.76
2023-06-11T06:43:02.427Z,8.63
2023-06-11T06:44:02.478Z,7.73
2023-06-11T06:45:02.471Z,6.64
2023-06-11T06:46:02.501Z,5.37
2023-06-11T06:47:02.509Z,4.10
2023-06-11T06:48:02.585Z,2.49
2023-06-11T06:49:02.616Z,2.26
2023-06-11T06:50:02.637Z,2.36
2023-06-11T06:51:03.387Z,2.60
2023-06-11T06:52:02.641Z,3.19
2023-06-11T06:53:02.705Z,3.56
2023-06-11T06:54:02.687Z,2.96
2023-06-11T06:55:02.711Z,2.56
2023-06-11T06:56:02.730Z,2.45
2023-06-11T06:57:02.801Z,2.32
2023-06-11T06:58:02.788Z,2.66
2023-06-11T06:59:02.826Z,2.80
2023-06-11T07:00:02.827Z,2.31
2023-06-11T07:01:02.867Z,2.24
2023-06-11T07:02:02.833Z,2.63
2023-06-11T07:03:02.937Z,2.91
2023-06-11T07:04:02.964Z,2.79
2023-06-11T07:05:03.010Z,2.63
2023-06-11T07:06:03.098Z,3.12
2023-06-11T07:07:03.124Z,3.51
2023-06-11T07:08:03.090Z,3.72
2023-06-11T07:09:03.120Z,3.99
2023-06-11T07:10:03.202Z,3.55
2023-06-11T07:11:03.229Z,3.20
2023-06-11T07:12:03.277Z,3.32
2023-06-11T07:13:03.315Z,3.98
2023-06-11T07:14:03.372Z,3.81
2023-06-11T07:15:03.415Z,3.57
2023-06-11T07:16:03.468Z,3.49
2023-06-11T07:17:03.453Z,3.82
2023-06-11T07:18:03.555Z,4.58
2023-06-11T07:19:03.525Z,4.71
2023-06-11T07:20:03.665Z,4.92
2023-06-11T07:21:03.620Z,4.50
2023-06-11T07:22:03.629Z,4.22
2023-06-11T07:23:03.620Z,4.54
2023-06-11T07:24:03.736Z,4.77
2023-06-11T07:25:03.747Z,4.61
2023-06-11T07:26:03.874Z,4.42
2023-06-11T07:27:03.782Z,4.82
2023-06-11T07:28:03.775Z,4.91
2023-06-11T07:29:03.824Z,5.11
2023-06-11T07:30:03.846Z,5.33
2023-06-11T07:31:03.961Z,5.16
2023-06-11T07:32:03.891Z,4.71
2023-06-11T07:33:03.951Z,4.76
2023-06-11T07:34:03.930Z,4.77
2023-06-11T07:35:03.970Z,4.70
2023-06-11T07:36:04.023Z,4.65
2023-06-11T07:37:04.075Z,5.18
2023-06-11T07:38:04.066Z,5.34
2023-06-11T07:39:04.061Z,5.03
2023-06-11T07:40:04.167Z,4.71
2023-06-11T07:41:04.172Z,4.44
2023-06-11T07:42:04.182Z,4.46
2023-06-11T07:43:04.203Z,4.61
2023-06-11T07:44:04.233Z,5.85
2023-06-11T07:45:04.250Z,6.94
2023-06-11T07:46:04.417Z,7.97
2023-06-11T07:47:04.440Z,9.03
2023-06-11T07:48:04.404Z,10.14
2023-06-11T07:49:04.394Z,9.50
2023-06-11T07:50:04.383Z,9.08
2023-06-11T07:51:04.394Z,8.45
2023-06-11T07:52:04.466Z,6.74
2023-06-11T07:53:04.557Z,5.46
2023-06-11T07:54:04.527Z,5.11
2023-06-11T07:55:04.521Z,5.32
2023-06-11T07:56:04.558Z,5.97
2023-06-11T07:57:04.573Z,6.52
2023-06-11T07:58:04.595Z,5.73
2023-06-11T07:59:04.587Z,6.57
2023-06-11T08:00:04.672Z,7.93
2023-06-11T08:01:04.722Z,6.93
2023-06-11T08:02:04.774Z,6.49
2023-06-11T08:03:04.866Z,7.31
2023-06-11T08:04:04.858Z,8.21
2023-06-11T08:05:04.890Z,6.43
2023-06-11T08:06:04.949Z,5.50
2023-06-11T08:07:04.874Z,5.43
2023-06-11T08:08:04.921Z,5.77
2023-06-11T08:09:04.963Z,3.98
2023-06-11T08:10:05.037Z,3.85
2023-06-11T08:11:05.117Z,3.88
2023-06-11T08:12:05.147Z,4.01
2023-06-11T08:13:05.171Z,3.89
2023-06-11T08:14:05.306Z,3.69
2023-06-11T08:15:05.244Z,3.94
2023-06-11T08:16:05.326Z,3.37
2023-06-11T08:17:05.492Z,2.97
2023-06-11T08:18:05.509Z,2.76
2023-06-11T08:19:05.434Z,3.38
2023-06-11T08:20:05.506Z,3.61
2023-06-11T08:21:05.515Z,3.11
2023-06-11T08:22:05.548Z,2.89
2023-06-11T08:23:05.533Z,3.55
2023-06-11T08:24:05.629Z,3.82
2023-06-11T08:25:05.626Z,2.50
2023-06-11T08:26:05.646Z,2.26
2023-06-11T08:27:05.679Z,2.56
2023-06-11T08:28:05.728Z,3.03
2023-06-11T08:29:05.728Z,1.91
2023-06-11T08:30:05.792Z,2.07
2023-06-11T08:31:05.808Z,1.77
2023-06-11T08:32:05.897Z,1.47
2023-06-11T08:33:05.856Z,1.20
2023-06-11T08:34:05.881Z,1.38
2023-06-11T08:35:05.896Z,1.87
2023-06-11T08:36:05.933Z,1.88
2023-06-11T08:37:05.950Z,1.58
2023-06-11T08:38:05.948Z,1.52
2023-06-11T08:39:05.948Z,2.21
2023-06-11T08:40:05.936Z,1.95
2023-06-11T08:41:06.002Z,1.77
2023-06-11T08:42:05.957Z,1.62
2023-06-11T08:43:05.982Z,1.39
2023-06-11T08:44:06.010Z,1.24
2023-06-11T08:45:06.024Z,1.36
2023-06-11T08:46:06.076Z,1.32
2023-06-11T08:47:06.065Z,1.20
2023-06-11T08:48:06.110Z,0.93
2023-06-11T08:49:06.048Z,1.03
2023-06-11T08:50:06.098Z,1.02
2023-06-11T08:51:06.123Z,0.89
2023-06-11T08:52:06.200Z,0.51
2023-06-11T08:53:06.191Z,0.40
2023-06-11T08:54:06.252Z,0.34
2023-06-11T08:55:06.297Z,0.34
2023-06-11T08:56:06.278Z,0.34
2023-06-11T08:57:06.272Z,0.34
2023-06-11T08:58:06.288Z,0.34
2023-06-11T08:59:06.290Z,0.44
2023-06-11T09:00:09.367Z,0.68
2023-06-11T09:01:06.318Z,0.91
2023-06-11T09:02:06.344Z,1.15
2023-06-11T09:03:06.345Z,1.26
2023-06-11T09:04:06.372Z,1.33
2023-06-11T09:05:06.320Z,0.88
2023-06-11T09:06:06.234Z,0.68
2023-06-11T09:07:06.271Z,0.68
2023-06-11T09:08:06.245Z,0.94
2023-06-11T09:09:06.255Z,1.07
2023-06-11T09:10:06.274Z,0.97
2023-06-11T09:11:06.214Z,0.94
2023-06-11T09:12:06.229Z,1.17
2023-06-11T09:13:06.177Z,1.35
2023-06-11T09:14:06.190Z,2.55
2023-06-11T09:15:06.193Z,1.70
2023-06-11T09:16:06.265Z,1.81
2023-06-11T09:17:06.193Z,2.10
2023-06-11T09:18:09.650Z,2.33
2023-06-11T09:19:07.203Z,1.88
2023-06-11T09:20:06.153Z,1.40
2023-06-11T09:21:06.181Z,1.66
2023-06-11T09:22:06.148Z,1.75
2023-06-11T09:23:06.147Z,1.59
2023-06-11T09:24:06.161Z,1.35
2023-06-11T09:25:06.105Z,1.25
2023-06-11T09:26:06.117Z,1.46
2023-06-11T09:27:06.090Z,1.40
2023-06-11T09:28:06.078Z,2.36
2023-06-11T09:29:06.118Z,3.58
2023-06-11T09:30:06.076Z,2.74
2023-06-11T09:31:06.096Z,1.73
2023-06-11T09:32:15.933Z,1.81
2023-06-11T09:33:07.148Z,1.82
2023-06-11T09:34:06.049Z,1.96
2023-06-11T09:35:06.051Z,2.32
2023-06-11T09:36:06.068Z,2.68
2023-06-11T09:37:06.065Z,3.66
2023-06-11T09:38:06.024Z,3.03
2023-06-11T09:39:05.994Z,2.84
2023-06-11T09:40:06.020Z,2.67
2023-06-11T09:41:06.028Z,2.18
2023-06-11T09:42:06.066Z,3.12
2023-06-11T09:43:06.208Z,5.97
2023-06-11T09:44:06.193Z,4.55
2023-06-11T09:45:06.257Z,4.32
2023-06-11T09:46:06.370Z,3.58
2023-06-11T09:47:08.228Z,2.65
2023-06-11T09:48:06.473Z,2.99
2023-06-11T09:49:06.326Z,3.55
2023-06-11T09:50:06.378Z,3.10
2023-06-11T09:51:06.376Z,1.06
2023-06-11T09:52:06.352Z,0.86
2023-06-11T09:53:06.355Z,0.94
2023-06-11T09:54:06.317Z,1.08
2023-06-11T09:55:06.345Z,1.14
2023-06-11T09:56:11.556Z,1.30
2023-06-11T09:57:07.302Z,1.32
2023-06-11T09:58:06.316Z,1.42
2023-06-11T09:59:06.348Z,1.56
2023-06-11T10:00:06.246Z,1.98
2023-06-11T10:01:07.695Z,2.99
2023-06-11T10:02:06.268Z,4.35
2023-06-11T10:03:06.372Z,4.95
2023-06-11T10:04:06.250Z,4.51
2023-06-11T10:05:06.271Z,3.29
2023-06-11T10:06:06.248Z,0.96
2023-06-11T10:07:06.230Z,0.85
2023-06-11T10:08:06.297Z,0.97
2023-06-11T10:09:06.238Z,0.80
2023-06-11T10:10:06.196Z,0.96
2023-06-11T10:11:06.252Z,1.07
2023-06-11T10:12:06.222Z,1.16
2023-06-11T10:13:06.150Z,1.08
2023-06-11T10:14:06.201Z,1.37
2023-06-11T10:15:06.240Z,1.05
2023-06-11T10:16:06.321Z,0.95
2023-06-11T10:17:06.351Z,0.97
2023-06-11T10:18:06.467Z,0.69
2023-06-11T10:19:06.431Z,0.59
2023-06-11T10:20:06.493Z,0.52
2023-06-11T10:21:06.577Z,0.67
2023-06-11T10:22:06.582Z,0.74
2023-06-11T10:23:07.752Z,0.58
2023-06-11T10:24:06.633Z,0.45
2023-06-11T10:25:06.608Z,0.55
2023-06-11T10:26:06.663Z,0.48
2023-06-11T10:27:06.765Z,0.62
2023-06-11T10:28:06.590Z,0.67
2023-06-11T10:29:07.313Z,0.53
2023-06-11T10:30:06.733Z,0.50
2023-06-11T10:31:06.760Z,0.50
2023-06-11T10:32:06.784Z,0.50
2023-06-11T10:33:07.019Z,0.51
2023-06-11T10:34:06.973Z,0.63
2023-06-11T10:35:07.054Z,0.86
2023-06-11T10:36:07.031Z,0.71
2023-06-11T10:37:07.077Z,0.94
2023-06-11T10:38:07.124Z,0.82
2023-06-11T10:39:07.651Z,0.88
2023-06-11T10:40:07.278Z,0.90
2023-06-11T10:41:07.271Z,1.13
2023-06-11T10:42:07.231Z,1.13
2023-06-11T10:43:07.328Z,0.89
2023-06-11T10:44:07.296Z,0.80
2023-06-11T10:45:07.308Z,0.65
2023-06-11T10:46:07.321Z,0.94
2023-06-11T10:47:07.397Z,1.31
2023-06-11T10:48:07.535Z,1.04
2023-06-11T10:49:07.445Z,0.99
2023-06-11T10:50:07.604Z,1.39
2023-06-11T10:51:07.604Z,1.32
2023-06-11T10:52:07.654Z,1.32
2023-06-11T10:53:07.710Z,0.97
2023-06-11T10:54:07.732Z,1.18
2023-06-11T10:55:07.913Z,0.93
2023-06-11T10:56:07.815Z,0.71
2023-06-11T10:57:07.857Z,0.91
2023-06-11T10:58:07.884Z,1.60
2023-06-11T10:59:07.973Z,1.50
2023-06-11T11:00:08.007Z,1.33
2023-06-11T11:01:07.978Z,1.21
2023-06-11T11:02:08.053Z,1.02
2023-06-11T11:03:08.077Z,0.87
2023-06-11T11:04:08.097Z,1.43
2023-06-11T11:05:08.158Z,1.09
2023-06-11T11:06:08.156Z,0.86
2023-06-11T11:07:08.221Z,0.85
2023-06-11T11:08:08.226Z,1.23
2023-06-11T11:09:08.250Z,0.82
2023-06-11T11:10:08.257Z,0.65
2023-06-11T11:11:08.300Z,0.58
2023-06-11T11:12:08.264Z,0.88
2023-06-11T11:13:08.269Z,0.59
2023-06-11T11:14:08.271Z,0.50
2023-06-11T11:15:08.437Z,0.51
2023-06-11T11:16:08.374Z,0.51
2023-06-11T11:17:08.413Z,0.58
2023-06-11T11:18:08.372Z,0.66
2023-06-11T11:19:08.356Z,0.96
2023-06-11T11:20:08.410Z,0.85
2023-06-11T11:21:08.466Z,0.52
2023-06-11T11:22:08.531Z,0.57
2023-06-11T11:23:08.598Z,0.52
2023-06-11T11:24:08.665Z,0.41
2023-06-11T11:25:08.884Z,0.56
2023-06-11T11:26:08.676Z,0.70
2023-06-11T11:27:08.701Z,0.71
2023-06-11T11:28:08.679Z,0.69
2023-06-11T11:29:08.687Z,1.00
2023-06-11T11:30:08.822Z,1.20
2023-06-11T11:31:08.738Z,0.81
2023-06-11T11:32:08.795Z,0.91
2023-06-11T11:33:08.910Z,1.49
2023-06-11T11:34:08.909Z,1.82
2023-06-11T11:35:08.921Z,1.80
2023-06-11T11:36:09.046Z,1.36
2023-06-11T11:37:09.047Z,1.18
2023-06-11T11:38:09.167Z,1.52
2023-06-11T11:39:09.057Z,1.63
2023-06-11T11:40:09.157Z,1.58
2023-06-11T11:41:09.170Z,1.80
2023-06-11T11:42:09.152Z,1.85
2023-06-11T11:43:09.199Z,2.16
2023-06-11T11:44:09.191Z,2.52
2023-06-11T11:45:09.144Z,2.66
2023-06-11T11:46:09.226Z,3.56
2023-06-11T11:47:09.255Z,4.07
2023-06-11T11:48:09.605Z,3.83
2023-06-11T11:49:09.335Z,3.95
2023-06-11T11:50:09.553Z,5.25
2023-06-11T11:51:09.453Z,5.25
2023-06-11T11:52:09.441Z,3.14
2023-06-11T11:53:09.448Z,2.12
2023-06-11T11:54:09.519Z,1.68
2023-06-11T11:55:09.578Z,1.60
2023-06-11T11:56:09.597Z,1.91
2023-06-11T11:57:09.587Z,0.96
2023-06-11T11:58:09.570Z,0.89
2023-06-11T11:59:09.599Z,0.57
2023-06-11T12:00:09.894Z,0.51
2023-06-11T12:01:09.621Z,0.50
2023-06-11T12:02:09.714Z,0.53
2023-06-11T12:03:09.824Z,0.54
2023-06-11T12:04:09.765Z,0.57
2023-06-11T12:05:09.836Z,0.54
2023-06-11T12:06:10.010Z,0.36
2023-06-11T12:07:09.921Z,0.34
2023-06-11T12:08:09.972Z,0.49
2023-06-11T12:09:10.007Z,0.42
2023-06-11T12:10:10.365Z,0.40
2023-06-11T12:11:10.498Z,0.52
2023-06-11T12:12:10.170Z,0.74
2023-06-11T12:13:10.215Z,0.73
2023-06-11T12:14:10.215Z,0.79
2023-06-11T12:15:10.205Z,0.87
2023-06-11T12:16:10.318Z,0.92
2023-06-11T12:17:10.280Z,0.80
2023-06-11T12:18:10.284Z,0.69
2023-06-11T12:19:22.709Z,0.61
2023-06-11T12:20:11.573Z,0.61
2023-06-11T12:21:10.291Z,0.64
2023-06-11T12:22:10.356Z,0.72
2023-06-11T12:23:10.323Z,0.74
2023-06-11T12:24:10.398Z,0.77
2023-06-11T12:25:10.374Z,0.88
2023-06-11T12:26:10.300Z,0.68
2023-06-11T12:27:13.010Z,0.55
2023-06-11T12:28:10.306Z,0.50
2023-06-11T12:29:10.247Z,0.68
2023-06-11T12:30:10.486Z,0.76
2023-06-11T12:31:10.264Z,0.79
2023-06-11T12:32:10.259Z,0.73
2023-06-11T12:33:10.328Z,0.80
2023-06-11T12:34:10.224Z,0.73
2023-06-11T12:35:10.206Z,0.72
2023-06-11T12:36:10.206Z,0.77
2023-06-11T12:37:10.208Z,0.92
2023-06-11T12:38:10.212Z,0.96
2023-06-11T12:39:10.190Z,0.86
2023-06-11T12:40:10.537Z,0.67
2023-06-11T12:41:10.190Z,0.78
2023-06-11T12:42:10.200Z,0.87
2023-06-11T12:43:10.196Z,0.72
2023-06-11T12:44:10.160Z,0.85
2023-06-11T12:45:10.160Z,0.65
2023-06-11T12:46:10.193Z,0.64
2023-06-11T12:47:10.115Z,0.85
2023-06-11T12:48:10.224Z,0.74
2023-06-11T12:49:10.151Z,0.81
2023-06-11T12:50:10.614Z,0.65
2023-06-11T12:51:10.145Z,0.64
2023-06-11T12:52:10.095Z,0.75
2023-06-11T12:53:10.098Z,0.58